createdAt,value
2023-01-31T00:00:38.616Z,33.94
2023-01-31T00:03:23.911Z,34.26
2023-01-31T00:05:52.748Z,33.95
2023-01-31T00:08:21.785Z,33.87
2023-01-31T00:10:50.488Z,33.99
2023-01-31T00:13:20.779Z,34.08
2023-01-31T00:15:49.502Z,34.00
2023-01-31T00:18:18.586Z,34.06
2023-01-31T00:20:47.047Z,33.89
2023-01-31T00:23:16.096Z,34.23
2023-01-31T00:25:44.492Z,33.95
2023-01-31T00:28:13.299Z,34.46
2023-01-31T00:30:41.753Z,34.06
2023-01-31T00:33:10.479Z,34.42
2023-01-31T00:35:40.927Z,33.95
2023-01-31T00:38:11.128Z,34.89
2023-01-31T00:40:39.908Z,35.08
2023-01-31T00:43:09.971Z,34.42
2023-01-31T00:45:38.676Z,35.06
2023-01-31T00:48:09.056Z,34.31
2023-01-31T00:50:38.109Z,34.76
2023-01-31T00:53:07.420Z,35.47
2023-01-31T00:55:37.387Z,35.13
2023-01-31T00:58:06.456Z,35.08
2023-01-31T01:00:35.356Z,34.60
2023-01-31T01:03:05.587Z,34.75
2023-01-31T01:05:34.454Z,34.08
2023-01-31T01:08:03.730Z,34.65
2023-01-31T01:10:32.389Z,34.32
2023-01-31T01:13:01.111Z,34.80
2023-01-31T01:15:29.542Z,34.53
2023-01-31T01:17:58.326Z,34.35
2023-01-31T01:20:26.758Z,34.47
2023-01-31T01:22:55.939Z,34.37
2023-01-31T01:25:24.701Z,34.34
2023-01-31T01:27:53.542Z,34.23
2023-01-31T01:30:22.108Z,34.53
2023-01-31T01:32:50.890Z,34.57
2023-01-31T01:35:19.533Z,34.62
2023-01-31T01:37:49.667Z,34.30
2023-01-31T01:40:18.590Z,34.81
2023-01-31T01:42:47.416Z,34.25
2023-01-31T01:45:16.602Z,34.83
2023-01-31T01:47:57.328Z,34.68
2023-01-31T01:50:46.864Z,35.10
2023-01-31T02:53:12.663Z,34.82
2023-01-31T02:56:18.173Z,35.24
2023-01-31T02:58:55.374Z,34.29
2023-01-31T03:01:31.280Z,34.90
2023-01-31T03:04:13.033Z,34.74
2023-01-31T03:07:26.840Z,34.43
2023-01-31T03:10:13.253Z,34.60
2023-01-31T03:13:44.052Z,34.57
2023-01-31T03:16:46.805Z,34.83
2023-01-31T03:19:24.065Z,34.40
2023-01-31T03:22:02.023Z,34.27
2023-01-31T03:24:30.861Z,34.14
2023-01-31T03:26:59.714Z,34.32
2023-01-31T03:29:29.089Z,34.50
2023-01-31T03:32:03.526Z,34.56
2023-01-31T03:34:33.495Z,34.55
2023-01-31T03:37:45.587Z,34.33
2023-01-31T03:40:26.707Z,34.14
2023-01-31T03:43:05.877Z,34.65
2023-01-31T03:45:44.504Z,34.40
2023-01-31T03:48:15.331Z,34.26
2023-01-31T03:51:17.349Z,34.44
2023-01-31T03:53:55.776Z,34.43
2023-01-31T03:56:54.546Z,34.08
2023-01-31T03:59:28.520Z,34.19
2023-01-31T04:01:59.937Z,34.33
2023-01-31T04:04:43.027Z,34.38
2023-01-31T04:07:12.141Z,34.37
2023-01-31T04:09:41.905Z,34.52
2023-01-31T04:12:12.766Z,34.63
2023-01-31T04:14:41.944Z,34.37
2023-01-31T04:17:10.725Z,34.68
2023-01-31T04:19:39.183Z,34.48
2023-01-31T04:22:08.011Z,34.60
2023-01-31T04:24:36.825Z,34.86
2023-01-31T04:27:06.033Z,34.43
2023-01-31T04:29:34.780Z,34.62
2023-01-31T04:32:03.913Z,34.87
2023-01-31T04:34:32.910Z,34.76
2023-01-31T04:37:03.183Z,35.07
2023-01-31T04:39:32.029Z,35.16
2023-01-31T04:42:01.013Z,34.89
2023-01-31T04:44:29.774Z,35.00
2023-01-31T04:47:00.336Z,34.44
2023-01-31T04:49:29.075Z,34.61
2023-01-31T04:51:58.965Z,33.85
2023-01-31T04:54:27.863Z,33.76
2023-01-31T04:56:56.793Z,33.82
2023-01-31T04:59:25.523Z,33.14
2023-01-31T05:01:55.032Z,32.88
2023-01-31T05:04:23.951Z,33.38
2023-01-31T05:06:54.007Z,32.64
2023-01-31T05:09:22.985Z,32.44
2023-01-31T05:11:51.938Z,32.38
2023-01-31T05:14:21.321Z,32.30
2023-01-31T05:16:50.090Z,32.16
2023-01-31T05:19:18.555Z,31.77
2023-01-31T05:21:59.395Z,31.72
2023-01-31T05:24:30.524Z,31.49
2023-01-31T05:27:02.546Z,31.45
2023-01-31T05:29:33.472Z,31.51
2023-01-31T05:32:03.704Z,31.41
2023-01-31T05:34:33.643Z,31.28
2023-01-31T05:37:02.594Z,31.24
2023-01-31T05:39:31.518Z,31.13
2023-01-31T05:42:00.787Z,30.87
2023-01-31T05:44:29.311Z,30.78
2023-01-31T05:46:58.106Z,30.82
2023-01-31T05:49:26.625Z,30.73
2023-01-31T05:51:55.462Z,30.58
2023-01-31T05:54:24.003Z,30.17
2023-01-31T05:56:54.009Z,30.26
2023-01-31T05:59:22.605Z,30.08
2023-01-31T06:01:51.362Z,30.24
2023-01-31T06:04:19.735Z,30.30
2023-01-31T06:06:48.524Z,29.78
2023-01-31T06:09:16.944Z,29.81
2023-01-31T06:11:45.765Z,30.03
2023-01-31T06:14:14.154Z,30.16
2023-01-31T06:16:43.103Z,29.62
2023-01-31T06:19:11.713Z,29.64
2023-01-31T06:21:40.580Z,29.52
2023-01-31T06:24:09.264Z,29.78
2023-01-31T06:26:38.234Z,29.55
2023-01-31T06:29:07.358Z,29.79
2023-01-31T06:31:36.227Z,29.79
2023-01-31T06:34:04.595Z,29.86
2023-01-31T06:36:34.271Z,29.92
2023-01-31T06:39:04.320Z,30.08
2023-01-31T06:41:33.135Z,30.00
2023-01-31T06:44:01.783Z,30.14
2023-01-31T06:46:30.707Z,30.23
2023-01-31T06:48:59.287Z,30.51
2023-01-31T06:51:28.122Z,30.63
2023-01-31T06:53:56.850Z,30.84
2023-01-31T06:56:25.695Z,30.59
2023-01-31T06:58:54.734Z,30.69
2023-01-31T07:01:24.863Z,31.03
2023-01-31T07:03:53.448Z,30.91
2023-01-31T07:06:23.344Z,31.09
2023-01-31T07:08:52.559Z,31.00
2023-01-31T07:11:21.608Z,31.17
2023-01-31T07:13:50.631Z,31.14
2023-01-31T07:16:20.057Z,31.41
2023-01-31T07:18:48.684Z,31.20
2023-01-31T07:21:17.493Z,31.39
2023-01-31T07:23:46.653Z,31.37
2023-01-31T07:26:15.613Z,31.46
2023-01-31T07:28:44.140Z,31.48
2023-01-31T07:31:14.285Z,31.51
2023-01-31T07:33:42.974Z,31.52
2023-01-31T07:36:14.969Z,31.41
2023-01-31T07:38:43.890Z,31.47
2023-01-31T07:41:27.308Z,31.47
2023-01-31T07:43:56.148Z,31.44
2023-01-31T07:46:24.645Z,31.61
2023-01-31T07:48:53.597Z,31.51
2023-01-31T07:51:22.116Z,31.70
2023-01-31T07:53:51.110Z,31.64
2023-01-31T07:56:21.598Z,31.75
2023-01-31T07:58:50.897Z,31.74
2023-01-31T08:01:41.533Z,31.89
2023-01-31T08:04:21.662Z,31.90
2023-01-31T08:06:53.868Z,31.93
2023-01-31T08:09:23.686Z,31.98
2023-01-31T08:11:52.667Z,32.07
2023-01-31T08:14:25.733Z,32.11
2023-01-31T08:16:57.455Z,32.25
2023-01-31T08:19:27.055Z,32.26
2023-01-31T08:21:55.553Z,32.33
2023-01-31T08:24:24.389Z,32.29
2023-01-31T08:26:53.127Z,32.56
2023-01-31T08:29:22.439Z,32.95
2023-01-31T08:31:52.369Z,32.56
2023-01-31T08:34:23.447Z,32.44
2023-01-31T08:36:52.119Z,32.41
2023-01-31T08:39:22.281Z,32.69
2023-01-31T08:41:50.858Z,32.55
2023-01-31T08:44:19.784Z,32.40
2023-01-31T08:46:48.345Z,32.69
2023-01-31T08:49:17.378Z,32.56
2023-01-31T08:51:46.266Z,32.46
2023-01-31T08:54:16.588Z,32.52
2023-01-31T08:56:45.152Z,32.40
2023-01-31T08:59:14.130Z,32.59
2023-01-31T09:01:45.986Z,32.51
2023-01-31T09:04:14.931Z,32.70
2023-01-31T09:06:43.442Z,32.46
2023-01-31T09:09:12.366Z,32.58
2023-01-31T09:11:40.895Z,32.63
2023-01-31T09:14:09.735Z,32.41
2023-01-31T09:16:39.000Z,32.48
2023-01-31T09:19:08.125Z,32.75
2023-01-31T09:21:37.086Z,32.41
2023-01-31T09:24:06.497Z,32.55
2023-01-31T09:26:35.337Z,32.56
2023-01-31T09:29:04.258Z,32.46
2023-01-31T09:31:33.404Z,32.52
2023-01-31T09:34:03.336Z,32.74
2023-01-31T09:36:32.047Z,32.80
2023-01-31T09:39:00.875Z,33.00
2023-01-31T09:41:44.939Z,32.85
2023-01-31T09:44:40.584Z,32.85
2023-01-31T09:47:28.778Z,32.95
2023-01-31T09:50:07.747Z,33.06
2023-01-31T09:52:37.568Z,33.24
2023-01-31T09:55:08.738Z,33.37
2023-01-31T09:58:04.743Z,33.50
2023-01-31T10:00:37.199Z,33.44
2023-01-31T10:03:39.725Z,33.69
2023-01-31T10:06:29.423Z,33.70
2023-01-31T10:09:11.045Z,33.87
2023-01-31T10:12:05.165Z,33.84
2023-01-31T10:14:53.573Z,34.02
2023-01-31T10:17:31.720Z,33.82
2023-01-31T10:20:11.479Z,33.78
2023-01-31T10:23:03.213Z,33.73
2023-01-31T10:25:37.677Z,33.87
2023-01-31T10:28:32.412Z,33.90
2023-01-31T10:31:17.777Z,33.90
2023-01-31T10:34:11.325Z,34.11
2023-01-31T10:36:53.465Z,33.85
2023-01-31T10:39:44.164Z,34.08
2023-01-31T10:42:23.880Z,34.12
2023-01-31T10:45:20.478Z,33.90
2023-01-31T10:47:54.569Z,34.09
2023-01-31T10:51:05.486Z,33.71
2023-01-31T10:54:13.353Z,33.68
2023-01-31T10:56:47.390Z,33.48
2023-01-31T10:59:37.075Z,33.50
2023-01-31T11:02:06.008Z,33.27
2023-01-31T11:04:43.438Z,33.27
2023-01-31T11:07:12.794Z,33.26
2023-01-31T11:09:49.195Z,33.13
2023-01-31T11:12:18.783Z,32.97
2023-01-31T11:15:04.421Z,32.63
2023-01-31T11:17:33.571Z,32.75
2023-01-31T11:20:02.910Z,32.48
2023-01-31T11:22:33.432Z,32.47
2023-01-31T11:25:04.618Z,32.35
2023-01-31T11:27:43.855Z,32.37
2023-01-31T11:30:35.475Z,32.31
2023-01-31T11:33:05.559Z,32.25
2023-01-31T11:35:35.556Z,32.17
2023-01-31T11:38:24.895Z,32.27
2023-01-31T11:40:53.570Z,32.02
2023-01-31T11:43:26.209Z,31.98
2023-01-31T11:46:02.117Z,31.78
2023-01-31T11:48:37.053Z,31.67
2023-01-31T11:51:05.649Z,31.60
2023-01-31T11:53:39.729Z,31.36
2023-01-31T11:56:20.334Z,31.33
2023-01-31T11:58:50.485Z,31.48
2023-01-31T12:01:22.123Z,31.33
2023-01-31T12:04:03.130Z,31.50
2023-01-31T12:06:37.752Z,31.40
2023-01-31T12:09:19.921Z,31.62
2023-01-31T12:11:56.482Z,31.73
2023-01-31T12:14:41.483Z,31.48
2023-01-31T12:17:14.570Z,30.91
2023-01-31T12:20:29.302Z,30.77
2023-01-31T12:23:11.267Z,31.12
2023-01-31T12:25:52.350Z,31.07
2023-01-31T12:28:29.273Z,30.96
2023-01-31T12:31:31.600Z,31.20
2023-01-31T12:34:21.972Z,31.48
2023-01-31T12:37:02.837Z,31.46
2023-01-31T12:39:38.440Z,31.58
2023-01-31T12:42:28.949Z,31.89
2023-01-31T12:45:17.303Z,31.89
2023-01-31T12:48:14.906Z,31.98
2023-01-31T12:50:46.619Z,32.08
2023-01-31T12:53:33.705Z,32.17
2023-01-31T12:56:13.032Z,32.38
2023-01-31T12:59:03.114Z,32.35
2023-01-31T13:01:48.964Z,32.24
2023-01-31T13:04:21.142Z,32.15
2023-01-31T13:06:57.210Z,32.31
2023-01-31T13:09:34.398Z,32.13
2023-01-31T13:12:14.970Z,32.10
2023-01-31T13:15:35.962Z,32.00
2023-01-31T13:18:06.086Z,32.18
2023-01-31T13:21:02.022Z,32.14
2023-01-31T13:23:40.207Z,32.06
2023-01-31T13:26:40.384Z,31.94
2023-01-31T13:29:47.112Z,31.93
2023-01-31T13:32:46.530Z,31.87
2023-01-31T13:35:22.724Z,31.78
2023-01-31T13:37:56.470Z,31.75
2023-01-31T13:40:28.109Z,31.54
2023-01-31T13:43:00.211Z,31.44
2023-01-31T13:45:35.812Z,31.31
2023-01-31T13:48:11.121Z,31.52
2023-01-31T13:50:42.979Z,31.63
2023-01-31T13:53:36.349Z,31.61
2023-01-31T13:56:05.904Z,31.80
2023-01-31T13:58:35.482Z,31.84
2023-01-31T14:01:17.912Z,31.99
2023-01-31T14:04:15.144Z,31.81
2023-01-31T14:07:08.491Z,31.93
2023-01-31T14:09:46.618Z,32.11
2023-01-31T14:12:17.944Z,32.07
2023-01-31T14:14:53.839Z,32.08
2023-01-31T14:17:22.252Z,32.03
2023-01-31T14:19:58.127Z,32.23
2023-01-31T14:22:41.560Z,32.30
2023-01-31T14:25:14.184Z,32.23
2023-01-31T14:27:57.634Z,32.50
2023-01-31T14:30:29.614Z,32.44
2023-01-31T14:33:13.051Z,32.59
2023-01-31T14:36:08.254Z,32.45
2023-01-31T14:38:53.942Z,32.32
2023-01-31T14:41:56.923Z,32.08
2023-01-31T14:45:11.930Z,32.34
2023-01-31T14:47:43.684Z,32.12
2023-01-31T14:50:24.483Z,32.23
2023-01-31T14:53:13.128Z,32.11
2023-01-31T14:55:54.755Z,32.17
2023-01-31T14:58:26.661Z,32.09
2023-01-31T15:01:01.295Z,32.11
2023-01-31T15:03:56.731Z,32.24
2023-01-31T15:06:41.153Z,32.24
2023-01-31T15:09:16.411Z,32.19
2023-01-31T15:11:57.009Z,32.25
2023-01-31T15:14:41.923Z,32.16
2023-01-31T15:17:35.521Z,32.31
2023-01-31T15:20:19.319Z,32.09
2023-01-31T15:22:48.142Z,31.97
2023-01-31T15:25:40.157Z,32.03
2023-01-31T15:28:10.912Z,32.03
2023-01-31T15:30:40.948Z,32.19
2023-01-31T15:33:28.473Z,32.08
2023-01-31T15:36:21.493Z,32.01
2023-01-31T15:39:05.045Z,32.05
2023-01-31T15:41:40.208Z,32.17
2023-01-31T15:44:30.377Z,32.46
2023-01-31T15:46:59.428Z,32.27
2023-01-31T15:49:40.432Z,32.35
2023-01-31T15:52:21.538Z,32.48
2023-01-31T15:55:03.045Z,32.59
2023-01-31T15:57:37.711Z,32.48
2023-01-31T16:00:07.484Z,32.61
2023-01-31T16:02:39.323Z,32.74
2023-01-31T16:05:08.758Z,32.66
2023-01-31T16:07:37.861Z,32.85
2023-01-31T16:10:07.025Z,32.68
2023-01-31T16:12:36.748Z,32.62
2023-01-31T16:15:07.154Z,32.61
2023-01-31T16:17:36.442Z,32.56
2023-01-31T16:20:06.088Z,32.56
2023-01-31T16:22:35.256Z,32.64
2023-01-31T16:25:05.379Z,32.37
2023-01-31T16:27:37.750Z,32.54
2023-01-31T16:30:07.493Z,32.28
2023-01-31T16:32:38.450Z,32.45
2023-01-31T16:35:19.738Z,32.01
2023-01-31T16:37:49.347Z,32.26
2023-01-31T16:40:18.041Z,32.25
2023-01-31T16:42:47.239Z,32.19
2023-01-31T16:45:30.898Z,32.27
2023-01-31T16:48:28.257Z,32.06
2023-01-31T16:50:58.458Z,32.16
2023-01-31T16:53:31.536Z,32.26
2023-01-31T16:56:15.286Z,32.12
2023-01-31T16:58:56.697Z,31.98
2023-01-31T17:01:35.089Z,31.80
2023-01-31T17:04:17.934Z,31.86
2023-01-31T17:07:02.284Z,32.06
2023-01-31T17:09:31.583Z,31.86
2023-01-31T17:12:00.684Z,31.84
2023-01-31T17:14:33.317Z,31.73
2023-01-31T17:17:12.723Z,32.15
2023-01-31T17:19:45.175Z,31.78
2023-01-31T17:22:15.355Z,31.73
2023-01-31T17:24:45.134Z,31.94
2023-01-31T17:27:17.825Z,31.98
2023-01-31T17:29:49.661Z,32.01
2023-01-31T17:32:20.668Z,32.02
2023-01-31T17:34:49.996Z,32.04
2023-01-31T17:37:30.073Z,31.96
2023-01-31T17:40:01.197Z,31.83
2023-01-31T17:42:30.382Z,31.97
2023-01-31T17:45:01.359Z,31.89
2023-01-31T17:47:30.334Z,32.06
2023-01-31T17:50:00.639Z,32.14
2023-01-31T17:52:29.618Z,31.92
2023-01-31T17:54:58.902Z,31.59
2023-01-31T17:57:27.895Z,31.99
2023-01-31T17:59:57.326Z,31.65
2023-01-31T18:02:26.356Z,32.15
2023-01-31T18:04:55.825Z,31.91
2023-01-31T18:07:24.755Z,31.97
2023-01-31T18:09:54.095Z,32.22
2023-01-31T18:12:23.054Z,32.12
2023-01-31T18:14:52.448Z,32.17
2023-01-31T18:17:21.714Z,32.56
2023-01-31T18:19:52.175Z,32.55
2023-01-31T18:22:21.305Z,32.92
2023-01-31T18:24:50.694Z,32.82
2023-01-31T18:27:19.850Z,33.13
2023-01-31T18:29:49.394Z,33.26
2023-01-31T18:32:20.173Z,33.44
2023-01-31T18:34:49.968Z,33.53
2023-01-31T18:37:21.854Z,33.71
2023-01-31T18:39:51.941Z,33.73
2023-01-31T18:42:21.322Z,33.83
2023-01-31T18:44:51.863Z,33.79
2023-01-31T18:47:20.740Z,33.68
2023-01-31T18:49:50.075Z,33.53
2023-01-31T18:52:18.908Z,33.66
2023-01-31T18:54:49.828Z,33.40
2023-01-31T18:57:18.600Z,33.14
2023-01-31T18:59:47.698Z,33.25
2023-01-31T19:02:16.469Z,33.12
2023-01-31T19:04:45.619Z,32.96
2023-01-31T19:07:14.357Z,33.15
2023-01-31T19:09:43.448Z,33.01
2023-01-31T19:12:12.134Z,32.86
2023-01-31T19:14:41.069Z,32.92
2023-01-31T19:17:09.717Z,33.30
2023-01-31T19:19:38.852Z,33.32
2023-01-31T19:22:07.453Z,33.26
2023-01-31T19:24:36.440Z,33.49
2023-01-31T19:27:04.999Z,33.17
2023-01-31T19:29:35.022Z,33.46
2023-01-31T19:32:03.675Z,33.63
2023-01-31T19:34:33.648Z,33.81
2023-01-31T19:37:02.237Z,33.69
2023-01-31T19:39:31.250Z,33.74
2023-01-31T19:41:59.936Z,33.99
2023-01-31T19:44:28.903Z,34.10
2023-01-31T19:46:57.635Z,34.21
2023-01-31T19:49:28.281Z,34.42
2023-01-31T19:51:56.906Z,34.44
2023-01-31T19:54:27.950Z,34.41
2023-01-31T19:56:56.718Z,34.44
2023-01-31T19:59:25.922Z,34.08
2023-01-31T20:01:54.897Z,34.08
2023-01-31T20:04:24.071Z,34.11
2023-01-31T20:06:52.682Z,33.98
2023-01-31T20:09:23.138Z,33.79
2023-01-31T20:11:54.028Z,33.89
2023-01-31T20:14:23.183Z,33.58
2023-01-31T20:16:52.050Z,33.56
2023-01-31T20:19:22.665Z,33.47
2023-01-31T20:21:52.250Z,33.43
2023-01-31T20:24:21.325Z,33.54
2023-01-31T20:26:50.046Z,33.60
2023-01-31T20:29:18.995Z,33.70
2023-01-31T20:31:48.854Z,33.57
2023-01-31T20:34:17.863Z,33.63
2023-01-31T20:36:46.499Z,33.38
2023-01-31T20:39:15.559Z,33.43
2023-01-31T20:41:44.169Z,33.72
2023-01-31T20:44:13.128Z,34.47
2023-01-31T20:46:41.841Z,34.33
2023-01-31T20:49:12.149Z,34.63
2023-01-31T20:51:40.879Z,34.72
2023-01-31T20:54:09.868Z,34.82
2023-01-31T20:56:38.777Z,34.93
2023-01-31T20:59:07.793Z,35.06
2023-01-31T21:01:36.789Z,35.24
2023-01-31T21:04:08.276Z,35.34
2023-01-31T21:06:37.114Z,35.39
2023-01-31T21:09:07.503Z,35.50
2023-01-31T21:11:36.328Z,35.45
2023-01-31T21:14:05.281Z,35.54
2023-01-31T21:16:33.991Z,35.42
2023-01-31T21:19:03.041Z,35.23
2023-01-31T21:21:33.538Z,35.22
2023-01-31T21:24:04.800Z,35.03
2023-01-31T21:26:33.441Z,34.86
2023-01-31T21:29:02.759Z,34.57
2023-01-31T21:31:31.681Z,34.46
2023-01-31T21:34:05.699Z,34.11
2023-01-31T21:36:36.506Z,34.31
2023-01-31T21:39:05.597Z,34.01
2023-01-31T21:41:53.099Z,33.73
2023-01-31T21:44:22.091Z,33.61
2023-01-31T21:46:50.865Z,33.47
2023-01-31T21:49:19.800Z,33.34
2023-01-31T21:51:48.490Z,33.54
2023-01-31T21:54:17.609Z,33.53
2023-01-31T21:56:46.304Z,33.28
2023-01-31T21:59:15.365Z,33.48
2023-01-31T22:01:44.100Z,33.51
2023-01-31T22:04:13.069Z,33.44
2023-01-31T22:06:42.517Z,33.42
2023-01-31T22:09:12.880Z,33.73
2023-01-31T22:11:42.747Z,33.76
2023-01-31T22:14:16.151Z,33.86
2023-01-31T22:16:45.029Z,33.73
2023-01-31T22:19:14.398Z,33.99
2023-01-31T22:21:43.549Z,33.81
2023-01-31T22:24:12.628Z,33.94
2023-01-31T22:26:42.977Z,33.86
2023-01-31T22:29:14.472Z,34.29
2023-01-31T22:31:44.030Z,34.10
2023-01-31T22:34:16.624Z,34.08
2023-01-31T22:36:45.264Z,34.20
2023-01-31T22:39:16.247Z,34.13
2023-01-31T22:41:45.340Z,34.03
2023-01-31T22:44:14.095Z,34.15
2023-01-31T22:46:42.586Z,34.14
2023-01-31T22:49:11.290Z,34.29
2023-01-31T22:51:40.725Z,34.28
2023-01-31T22:54:10.498Z,34.30
2023-01-31T22:56:38.907Z,34.54
2023-01-31T22:59:10.036Z,34.32
2023-01-31T23:01:38.782Z,34.32
2023-01-31T23:04:08.954Z,34.43
2023-01-31T23:06:38.177Z,34.40
2023-01-31T23:09:06.863Z,34.30
2023-01-31T23:11:35.213Z,34.40
2023-01-31T23:14:03.865Z,34.47
2023-01-31T23:16:50.642Z,34.55
2023-01-31T23:19:19.343Z,34.49
2023-01-31T23:21:49.158Z,34.49
2023-01-31T23:24:19.257Z,34.38
2023-01-31T23:26:47.840Z,34.64
2023-01-31T23:29:16.578Z,34.48
2023-01-31T23:31:45.073Z,34.51
2023-01-31T23:34:13.894Z,34.48
2023-01-31T23:36:42.212Z,34.58
2023-01-31T23:39:11.233Z,34.69
2023-01-31T23:41:39.665Z,34.79
2023-01-31T23:44:09.059Z,34.56
2023-01-31T23:46:37.557Z,34.57
2023-01-31T23:49:06.528Z,34.65
2023-01-31T23:51:36.254Z,34.71
2023-01-31T23:54:05.005Z,34.71
2023-01-31T23:56:33.845Z,34.57
2023-01-31T23:59:02.669Z,34.53
